Terminal Aerodrome Forecast
Issued by NWS

Home | Current Version | Previous Version | Text Only | Print | Product List | Glossary On
Versions: 1 2 3 4 5 6 7 8 9 10 11 12 13 14 15 16
000
FTUS45 KREV 300520
TAFRNO
TAF
KRNO 300520Z 3006/0106 34014KT P6SM VCSH SCT030 OVC040
     FM301000 34005KT P6SM SCT040 BKN100
     FM301500 02013KT P6SM BKN060
     FM301900 05013G23KT P6SM SCT050
     FM010300 VRB04KT P6SM SCT080=

USA.gov is the U.S. government's official web portal to all federal, state and local government web resources and services.